Time;durP1;ratioP1;P1;durP2;ratioP2;P2;SDS_P1;SDS_P2;PMS_P1;PMS_P2;Temp;Humidity;BMP_temperature;BMP_pressure;BME280_temperature;BME280_humidity;BME280_pressure;Samples;Min_cycle;Max_cycle;Signal;HPM_P1;HPM_P2
2022/04/05 00:00:32;;;;;;;7.75;1.98;;;7.80;99.90;;;;;;5050251;28;20414;-80
2022/04/05 00:02:58;;;;;;;9.15;2.20;;;7.80;99.90;;;;;;5050389;28;20041;-81
2022/04/05 00:05:24;;;;;;;7.22;2.40;;;7.80;99.90;;;;;;5050503;28;20391;-81
2022/04/05 00:07:49;;;;;;;8.02;2.08;;;7.80;99.90;;;;;;5050432;28;20045;-81
2022/04/05 00:10:15;;;;;;;5.53;1.50;;;7.80;99.90;;;;;;5050023;28;20052;-80
2022/04/05 00:12:41;;;;;;;8.02;2.00;;;7.70;99.90;;;;;;5050300;28;20041;-81
2022/04/05 00:15:09;;;;;;;7.38;1.88;;;7.70;99.90;;;;;;5033942;28;20083;-81
2022/04/05 00:17:35;;;;;;;4.57;1.30;;;7.70;99.90;;;;;;5050415;28;20041;-80
2022/04/05 00:20:01;;;;;;;9.32;1.60;;;7.70;99.90;;;;;;5050067;28;20047;-80
2022/04/05 00:22:26;;;;;;;4.25;1.30;;;7.70;99.90;;;;;;5050124;28;20056;-81
2022/04/05 00:24:52;;;;;;;5.40;1.40;;;7.70;99.90;;;;;;5050229;28;20414;-81
2022/04/05 00:27:17;;;;;;;6.38;1.42;;;7.70;99.90;;;;;;5050397;28;20389;-81
2022/04/05 00:29:43;;;;;;;3.90;1.00;;;7.70;99.90;;;;;;5049924;28;20562;-80
2022/04/05 00:32:09;;;;;;;5.90;1.35;;;7.70;99.90;;;;;;5050460;28;20044;-81
2022/04/05 00:34:35;;;;;;;7.03;1.55;;;7.70;99.90;;;;;;5050050;28;20041;-81
2022/04/05 00:37:01;;;;;;;5.63;1.20;;;7.70;99.90;;;;;;5033412;28;20129;-81
2022/04/05 00:39:27;;;;;;;3.83;1.13;;;7.60;99.90;;;;;;5049815;28;20072;-81
2022/04/05 00:41:53;;;;;;;6.88;2.10;;;7.60;99.90;;;;;;5050098;28;20036;-81
2022/04/05 00:44:19;;;;;;;4.68;1.20;;;7.60;99.90;;;;;;5053389;28;20430;-81
2022/04/05 00:46:45;;;;;;;5.07;1.00;;;7.60;99.90;;;;;;5054068;28;20494;-81
2022/04/05 00:49:15;;;;;;;3.95;0.98;;;7.60;99.90;;;;;;5053989;28;20056;-81
2022/04/05 00:51:41;;;;;;;5.32;1.25;;;7.60;99.90;;;;;;5053615;28;20041;-81
2022/04/05 00:54:10;;;;;;;4.50;1.02;;;7.60;99.90;;;;;;5054035;28;20045;-81
2022/04/05 00:56:36;;;;;;;5.47;1.30;;;7.50;99.90;;;;;;5053897;28;20041;-81
2022/04/05 00:59:03;;;;;;;3.40;1.00;;;7.50;99.90;;;;;;5037522;28;20037;-81
2022/04/05 01:01:30;;;;;;;6.68;1.52;;;7.50;99.90;;;;;;5053598;28;20033;-81
2022/04/05 01:03:56;;;;;;;4.65;1.02;;;7.50;99.90;;;;;;5053798;28;20032;-81
2022/04/05 01:06:31;;;;;;;3.38;1.35;;;7.50;99.90;;;;;;5053660;28;20171;-81
2022/04/05 01:08:57;;;;;;;3.42;0.95;;;7.50;99.90;;;;;;5053592;28;20037;-81
2022/04/05 01:11:24;;;;;;;5.03;1.30;;;7.50;99.90;;;;;;5036765;28;20049;-81
2022/04/05 01:13:50;;;;;;;9.02;1.50;;;7.50;99.90;;;;;;5053728;28;20086;-81
2022/04/05 01:16:17;;;;;;;5.50;1.20;;;7.50;99.90;;;;;;5053655;28;20045;-81
2022/04/05 01:18:43;;;;;;;7.30;1.30;;;7.40;99.90;;;;;;5036932;28;20064;-81
2022/04/05 01:21:08;;;;;;;4.38;1.27;;;7.40;99.90;;;;;;5052888;28;20033;-81
2022/04/05 01:23:34;;;;;;;5.40;1.15;;;7.40;99.90;;;;;;5036902;28;20040;-81
2022/04/05 01:26:00;;;;;;;8.20;1.30;;;7.40;99.90;;;;;;5037115;28;20041;-81
2022/04/05 01:28:26;;;;;;;7.07;1.40;;;7.40;99.90;;;;;;5053449;28;20043;-81
2022/04/05 01:30:52;;;;;;;3.97;1.10;;;7.40;99.90;;;;;;5053186;28;20124;-81
2022/04/05 01:33:18;;;;;;;6.82;1.20;;;7.40;99.90;;;;;;5053044;28;20572;-81
2022/04/05 01:35:44;;;;;;;7.18;1.25;;;7.40;99.90;;;;;;5053142;28;20086;-81
2022/04/05 01:38:11;;;;;;;5.75;1.33;;;7.40;99.90;;;;;;5053465;28;20044;-81
2022/04/05 01:40:38;;;;;;;5.03;1.23;;;7.40;99.90;;;;;;5052892;28;20041;-81
2022/04/05 01:43:03;;;;;;;5.88;1.25;;;7.40;99.90;;;;;;5052905;28;20097;-81
2022/04/05 01:45:30;;;;;;;4.05;1.20;;;7.40;99.90;;;;;;5053045;28;20049;-81
2022/04/05 01:47:55;;;;;;;8.35;1.35;;;7.30;99.90;;;;;;5052865;28;20075;-81
2022/04/05 01:50:21;;;;;;;5.15;1.20;;;7.30;99.90;;;;;;5052729;28;20103;-81
2022/04/05 01:52:47;;;;;;;5.05;1.30;;;7.30;99.90;;;;;;5052678;28;20033;-81
2022/04/05 01:55:12;;;;;;;8.10;1.50;;;7.30;99.90;;;;;;5052629;28;20040;-81
2022/04/05 01:57:38;;;;;;;6.25;1.40;;;7.30;99.90;;;;;;5053099;28;20498;-81
2022/04/05 02:00:05;;;;;;;5.55;1.20;;;7.30;99.90;;;;;;5052521;28;20112;-81
2022/04/05 02:02:31;;;;;;;4.20;1.13;;;7.30;99.90;;;;;;5052568;28;20052;-81
2022/04/05 02:04:56;;;;;;;7.03;1.52;;;7.30;99.90;;;;;;5052802;28;20049;-81
2022/04/05 02:07:23;;;;;;;9.10;1.75;;;7.30;99.90;;;;;;5053904;28;20079;-81
2022/04/05 02:09:49;;;;;;;4.80;1.23;;;7.30;99.90;;;;;;5035899;28;20033;-81
2022/04/05 02:12:16;;;;;;;5.68;1.23;;;7.30;99.90;;;;;;5036042;28;20040;-81
2022/04/05 02:14:42;;;;;;;7.25;1.60;;;7.30;99.90;;;;;;5052551;28;20049;-81
2022/04/05 02:17:09;;;;;;;5.30;1.27;;;7.30;99.90;;;;;;5052245;28;20040;-81
2022/04/05 02:19:36;;;;;;;5.95;1.50;;;7.20;99.90;;;;;;5052120;28;20037;-81
2022/04/05 02:22:02;;;;;;;7.03;1.40;;;7.20;99.90;;;;;;5052299;28;20128;-81
2022/04/05 02:24:28;;;;;;;4.43;1.13;;;7.20;99.90;;;;;;5052680;28;20095;-81
2022/04/05 02:26:53;;;;;;;4.40;1.27;;;7.20;99.90;;;;;;5052302;28;20041;-81
2022/04/05 02:29:19;;;;;;;5.15;1.30;;;7.20;99.90;;;;;;5052024;28;20047;-81
2022/04/05 02:31:44;;;;;;;4.90;1.20;;;7.20;99.90;;;;;;5051702;28;20052;-81
2022/04/05 02:34:10;;;;;;;4.85;1.27;;;7.20;99.90;;;;;;5052020;28;20036;-81
2022/04/05 02:36:36;;;;;;;4.30;1.10;;;7.20;99.90;;;;;;5052160;28;20040;-81
2022/04/05 02:39:02;;;;;;;4.78;1.13;;;7.20;99.90;;;;;;5035476;28;20037;-81
2022/04/05 02:41:28;;;;;;;7.45;1.33;;;7.20;99.90;;;;;;5052039;28;20106;-81
2022/04/05 02:43:53;;;;;;;5.68;1.27;;;7.20;99.90;;;;;;5052072;28;20080;-81
2022/04/05 02:46:20;;;;;;;4.47;1.10;;;7.20;99.90;;;;;;5035176;28;20045;-81
2022/04/05 02:48:46;;;;;;;4.97;1.08;;;7.10;99.90;;;;;;5035320;28;20076;-81
2022/04/05 02:51:16;;;;;;;3.88;1.10;;;7.10;99.90;;;;;;5051464;28;20704;-81
2022/04/05 02:53:42;;;;;;;4.07;1.33;;;7.10;99.90;;;;;;5051695;28;20044;-81
2022/04/05 02:56:09;;;;;;;5.00;1.35;;;7.10;99.90;;;;;;5051845;28;20470;-81
2022/04/05 02:58:37;;;;;;;4.88;1.30;;;7.10;99.90;;;;;;5051883;28;20489;-81
2022/04/05 03:01:04;;;;;;;4.00;0.90;;;7.10;99.90;;;;;;5051469;28;20465;-81
2022/04/05 03:03:30;;;;;;;4.75;1.33;;;7.10;99.90;;;;;;5051913;28;20041;-81
2022/04/05 03:05:56;;;;;;;6.35;1.35;;;7.10;99.90;;;;;;5050867;28;20490;-81
2022/04/05 03:08:22;;;;;;;7.15;1.42;;;7.10;99.90;;;;;;5051489;28;20128;-81
2022/04/05 03:10:47;;;;;;;3.92;0.85;;;7.10;99.90;;;;;;5034612;28;20051;-81
2022/04/05 03:13:13;;;;;;;5.28;1.40;;;7.10;99.90;;;;;;5051213;28;20414;-81
2022/04/05 03:15:39;;;;;;;6.10;1.35;;;7.10;99.90;;;;;;5051574;28;20041;-81
2022/04/05 03:18:05;;;;;;;5.13;1.20;;;7.10;99.90;;;;;;5051594;28;20040;-81
2022/04/05 03:20:31;;;;;;;5.43;1.40;;;7.10;99.90;;;;;;5051001;28;20033;-81
2022/04/05 03:22:59;;;;;;;4.70;1.30;;;7.10;99.90;;;;;;5051147;28;20112;-81
2022/04/05 03:25:24;;;;;;;5.43;1.60;;;7.20;99.90;;;;;;5051371;28;20037;-81
2022/04/05 03:27:50;;;;;;;5.85;1.55;;;7.20;99.90;;;;;;5051217;28;20052;-81
2022/04/05 03:30:17;;;;;;;6.70;1.60;;;7.20;99.90;;;;;;5050850;28;20044;-81
2022/04/05 03:32:42;;;;;;;6.82;1.83;;;7.20;99.90;;;;;;5051113;28;20525;-81
2022/04/05 03:35:08;;;;;;;7.50;1.80;;;7.20;99.90;;;;;;5051213;28;20040;-81
2022/04/05 03:37:35;;;;;;;7.38;1.95;;;7.20;99.90;;;;;;5051066;28;20094;-81
2022/04/05 03:40:01;;;;;;;9.25;2.03;;;7.20;99.90;;;;;;5050749;28;20041;-81
2022/04/05 03:42:27;;;;;;;7.60;1.83;;;7.20;99.90;;;;;;5051018;28;20132;-81
2022/04/05 03:44:52;;;;;;;7.38;2.10;;;7.20;99.90;;;;;;5051290;28;20045;-81
2022/04/05 03:47:18;;;;;;;6.40;1.83;;;7.20;99.90;;;;;;5050943;28;20045;-80
2022/04/05 03:49:43;;;;;;;6.65;1.80;;;7.20;99.90;;;;;;5034007;28;20090;-80
2022/04/05 03:52:09;;;;;;;7.82;2.17;;;7.20;99.90;;;;;;5034170;28;20368;-80
2022/04/05 03:54:35;;;;;;;8.70;2.00;;;7.20;99.90;;;;;;5050700;28;20498;-80
2022/04/05 03:57:01;;;;;;;8.68;1.85;;;7.20;99.90;;;;;;5050505;28;20035;-80
2022/04/05 03:59:26;;;;;;;8.43;2.10;;;7.20;99.90;;;;;;5050220;28;20044;-80
2022/04/05 04:01:52;;;;;;;11.20;2.38;;;7.20;99.90;;;;;;5050600;28;20091;-80
2022/04/05 04:04:17;;;;;;;10.27;2.75;;;7.20;99.90;;;;;;5034065;28;20624;-80
2022/04/05 04:06:44;;;;;;;11.95;2.30;;;7.20;99.90;;;;;;5050559;28;20409;-80
2022/04/05 04:09:11;;;;;;;10.05;2.25;;;7.20;99.90;;;;;;5033889;28;20033;-80
2022/04/05 04:11:40;;;;;;;7.47;2.42;;;7.20;99.90;;;;;;5033534;28;20037;-80
2022/04/05 04:14:06;;;;;;;9.20;2.13;;;7.20;99.90;;;;;;5050357;28;20075;-80
2022/04/05 04:16:32;;;;;;;8.25;2.05;;;7.20;99.90;;;;;;5033954;28;20048;-80
2022/04/05 04:18:57;;;;;;;6.72;2.47;;;7.20;99.90;;;;;;5050494;28;20426;-80
2022/04/05 04:21:23;;;;;;;9.45;2.60;;;7.20;99.90;;;;;;5049844;28;20072;-80
2022/04/05 04:23:48;;;;;;;7.57;2.33;;;7.20;99.90;;;;;;5050438;28;20530;-80
2022/04/05 04:26:14;;;;;;;8.65;2.45;;;7.20;99.90;;;;;;5050322;28;20056;-80
2022/04/05 04:28:40;;;;;;;10.30;2.78;;;7.20;99.90;;;;;;5050071;28;20102;-80
2022/04/05 04:31:05;;;;;;;9.25;2.40;;;7.20;99.90;;;;;;5049927;28;20037;-80
2022/04/05 04:33:31;;;;;;;10.18;2.80;;;7.20;99.90;;;;;;5050132;28;20080;-80
2022/04/05 04:35:58;;;;;;;10.77;2.50;;;7.20;99.90;;;;;;5050328;28;20037;-80
2022/04/05 04:38:24;;;;;;;12.65;2.75;;;7.20;99.90;;;;;;5050444;28;20471;-80
2022/04/05 04:40:52;;;;;;;9.82;2.85;;;7.30;99.90;;;;;;5040529;28;20574;-80
2022/04/05 04:43:19;;;;;;;9.15;2.75;;;7.30;99.90;;;;;;5033688;28;20072;-81
2022/04/05 04:45:45;;;;;;;8.73;2.58;;;7.20;99.90;;;;;;5050367;28;20049;-81
2022/04/05 04:48:13;;;;;;;9.60;3.03;;;7.30;99.90;;;;;;5050261;28;20135;-80
2022/04/05 04:50:39;;;;;;;10.50;3.10;;;7.20;99.90;;;;;;5050020;28;20402;-81
2022/04/05 04:53:04;;;;;;;11.18;3.22;;;7.30;99.90;;;;;;5033438;28;20033;-80
2022/04/05 04:55:32;;;;;;;10.45;3.03;;;7.20;99.90;;;;;;5050088;28;20387;-81
2022/04/05 04:57:58;;;;;;;10.40;2.95;;;7.30;99.90;;;;;;5033449;28;20086;-81
2022/04/05 05:00:23;;;;;;;10.23;3.67;;;7.30;99.90;;;;;;5049977;28;20037;-81
2022/04/05 05:02:50;;;;;;;9.30;2.85;;;7.30;99.90;;;;;;5049693;28;20418;-81
2022/04/05 05:05:20;;;;;;;10.50;3.38;;;7.30;99.90;;;;;;5049887;28;20546;-81
2022/04/05 05:07:50;;;;;;;13.98;4.80;;;7.30;99.90;;;;;;5050180;28;20041;-81
2022/04/05 05:10:17;;;;;;;9.73;3.28;;;7.30;99.90;;;;;;5049720;28;20048;-81
2022/04/05 05:12:43;;;;;;;9.88;3.30;;;7.30;99.90;;;;;;5033045;28;20051;-81
2022/04/05 05:15:10;;;;;;;10.75;3.42;;;7.30;99.90;;;;;;5050047;28;20037;-81
2022/04/05 05:17:36;;;;;;;9.60;3.20;;;7.30;99.90;;;;;;5049621;28;20041;-81
2022/04/05 05:20:03;;;;;;;12.00;3.60;;;7.30;99.90;;;;;;5033116;28;20421;-81
2022/04/05 05:22:29;;;;;;;9.90;3.47;;;7.30;99.90;;;;;;5049529;28;20660;-81
2022/04/05 05:24:54;;;;;;;11.75;3.50;;;7.30;99.90;;;;;;5049654;28;20130;-81
2022/04/05 05:27:20;;;;;;;9.38;3.15;;;7.30;99.90;;;;;;5049694;28;20132;-81
2022/04/05 05:29:45;;;;;;;10.80;3.25;;;7.30;99.90;;;;;;5051209;28;20091;-81
2022/04/05 05:32:11;;;;;;;9.35;3.72;;;7.30;99.90;;;;;;5053436;28;20043;-81
2022/04/05 05:34:37;;;;;;;13.57;3.78;;;7.30;99.90;;;;;;5036560;28;20041;-81
2022/04/05 05:37:04;;;;;;;9.98;3.22;;;7.20;99.90;;;;;;5053156;28;20033;-81
2022/04/05 05:39:29;;;;;;;10.65;3.35;;;7.30;99.90;;;;;;5053001;28;20041;-80
2022/04/05 05:41:55;;;;;;;10.95;3.50;;;7.30;99.90;;;;;;5053218;28;20040;-81
2022/04/05 05:44:21;;;;;;;12.50;3.67;;;7.30;99.90;;;;;;5053163;28;20746;-81
2022/04/05 05:46:47;;;;;;;10.70;3.88;;;7.30;99.90;;;;;;5053250;28;20044;-81
2022/04/05 05:49:12;;;;;;;9.55;3.38;;;7.30;99.90;;;;;;5053321;28;20128;-81
2022/04/05 05:51:38;;;;;;;11.05;4.22;;;7.40;99.90;;;;;;5035786;28;20120;-81
2022/04/05 05:54:04;;;;;;;9.90;3.25;;;7.40;99.90;;;;;;5036088;28;20037;-81
2022/04/05 05:56:30;;;;;;;12.30;3.33;;;7.40;99.90;;;;;;5052784;28;20052;-81
2022/04/05 05:58:56;;;;;;;9.85;3.58;;;7.40;99.90;;;;;;5052924;28;20510;-81
2022/04/05 06:01:23;;;;;;;11.25;3.42;;;7.40;99.90;;;;;;5052385;28;20083;-81
2022/04/05 06:03:49;;;;;;;9.80;3.42;;;7.50;99.90;;;;;;5036167;28;20037;-81
2022/04/05 06:06:15;;;;;;;9.80;3.63;;;7.50;99.90;;;;;;5036025;28;20041;-81
2022/04/05 06:08:41;;;;;;;11.93;3.70;;;7.50;99.90;;;;;;5034155;28;20053;-81
2022/04/05 06:11:07;;;;;;;13.05;4.18;;;7.50;99.90;;;;;;5032582;28;20045;-81
2022/04/05 06:13:33;;;;;;;10.48;3.40;;;7.50;99.90;;;;;;5032549;28;20053;-81
2022/04/05 06:15:59;;;;;;;9.02;3.90;;;7.50;99.90;;;;;;5032601;28;20041;-81
2022/04/05 06:18:24;;;;;;;8.75;3.22;;;7.60;99.90;;;;;;5032378;28;20075;-81
2022/04/05 06:20:50;;;;;;;10.77;3.20;;;7.60;99.90;;;;;;5032108;28;20048;-81
2022/04/05 06:23:16;;;;;;;10.27;3.50;;;7.60;99.90;;;;;;5032593;28;20077;-81
2022/04/05 06:25:41;;;;;;;8.95;3.28;;;7.60;99.90;;;;;;5032597;28;20502;-81
2022/04/05 06:28:08;;;;;;;10.90;3.00;;;7.60;99.90;;;;;;5032417;28;20045;-81
2022/04/05 06:30:36;;;;;;;11.43;2.80;;;7.60;99.90;;;;;;5031940;28;20045;-81
2022/04/05 06:33:06;;;;;;;8.15;2.50;;;7.60;99.90;;;;;;5032303;28;20046;-81
2022/04/05 06:35:32;;;;;;;7.63;2.38;;;7.60;99.90;;;;;;5032089;28;20069;-81
2022/04/05 06:37:57;;;;;;;9.38;2.58;;;7.70;99.90;;;;;;5032213;28;20072;-81
2022/04/05 06:40:23;;;;;;;8.75;2.40;;;7.70;99.90;;;;;;5031183;28;20034;-81
2022/04/05 06:42:49;;;;;;;10.35;2.92;;;7.70;99.90;;;;;;5031698;28;20033;-81
2022/04/05 06:45:21;;;;;;;10.68;2.22;;;7.70;99.90;;;;;;5032300;28;20041;-81
2022/04/05 06:47:47;;;;;;;7.40;2.38;;;7.70;99.90;;;;;;5032135;28;20053;-81
2022/04/05 06:50:14;;;;;;;7.93;2.42;;;7.70;99.90;;;;;;5015026;28;20041;-81
2022/04/05 06:52:41;;;;;;;9.95;2.58;;;7.70;99.90;;;;;;5031532;28;20119;-81
2022/04/05 06:55:09;;;;;;;10.02;2.50;;;7.80;99.90;;;;;;5032098;28;20033;-81
2022/04/05 06:57:35;;;;;;;8.45;2.13;;;7.80;99.90;;;;;;5015264;28;20503;-81
2022/04/05 07:00:02;;;;;;;7.60;2.50;;;7.80;99.90;;;;;;5031464;28;20042;-80
2022/04/05 07:02:27;;;;;;;8.75;2.28;;;7.90;99.90;;;;;;5031550;28;20041;-81
2022/04/05 07:04:53;;;;;;;10.40;2.20;;;7.90;99.90;;;;;;5015119;28;20043;-81
2022/04/05 07:07:19;;;;;;;7.13;2.17;;;7.90;99.90;;;;;;5031750;28;20120;-81
2022/04/05 07:09:44;;;;;;;5.35;1.88;;;7.90;99.90;;;;;;5031254;28;20068;-81
2022/04/05 07:12:10;;;;;;;8.98;2.15;;;8.00;99.90;;;;;;5031489;28;20052;-81
2022/04/05 07:14:35;;;;;;;7.88;2.10;;;8.00;99.90;;;;;;5031376;28;20052;-81
2022/04/05 07:17:01;;;;;;;7.20;2.20;;;8.00;99.90;;;;;;5031402;28;20030;-81
2022/04/05 07:19:27;;;;;;;6.20;1.80;;;8.00;99.90;;;;;;5031215;28;20044;-81
2022/04/05 07:21:53;;;;;;;6.93;1.67;;;8.00;99.90;;;;;;5031134;28;20037;-81
2022/04/05 07:24:19;;;;;;;7.38;2.13;;;8.00;99.90;;;;;;5031462;28;20037;-81
2022/04/05 07:26:45;;;;;;;7.65;1.95;;;8.00;99.90;;;;;;5031218;28;20041;-81
2022/04/05 07:29:11;;;;;;;5.93;1.70;;;8.00;99.90;;;;;;5031063;28;20056;-81
2022/04/05 07:31:38;;;;;;;8.50;1.75;;;8.00;99.90;;;;;;5014196;28;21744;-81
2022/04/05 07:34:04;;;;;;;7.32;1.75;;;8.00;99.90;;;;;;5031130;28;20419;-81
2022/04/05 07:36:30;;;;;;;9.30;1.70;;;8.00;99.90;;;;;;5014604;28;20513;-81
2022/04/05 07:38:56;;;;;;;6.25;1.80;;;8.00;99.90;;;;;;5031094;28;20041;-81
2022/04/05 07:41:21;;;;;;;6.60;1.60;;;8.00;99.90;;;;;;5030943;28;20033;-81
2022/04/05 07:43:47;;;;;;;5.68;1.33;;;8.00;99.90;;;;;;5030931;28;20038;-81
2022/04/05 07:46:13;;;;;;;7.50;1.50;;;8.00;99.90;;;;;;5014409;28;20033;-81
2022/04/05 07:48:39;;;;;;;6.45;1.60;;;8.10;99.90;;;;;;5031146;28;20104;-81
2022/04/05 07:51:05;;;;;;;4.57;1.42;;;8.10;99.90;;;;;;5014049;28;20034;-81
2022/04/05 07:53:31;;;;;;;6.30;2.17;;;8.20;99.90;;;;;;5030477;28;20406;-81
2022/04/05 07:55:57;;;;;;;6.15;1.40;;;8.20;99.90;;;;;;5030766;28;20043;-81
2022/04/05 07:58:24;;;;;;;8.50;2.35;;;8.20;99.90;;;;;;5030740;28;20120;-81
2022/04/05 08:00:49;;;;;;;4.40;1.55;;;8.20;99.90;;;;;;5014012;28;20038;-81
2022/04/05 08:03:15;;;;;;;5.68;1.60;;;8.20;99.90;;;;;;5014176;28;20095;-81
2022/04/05 08:05:41;;;;;;;4.40;1.52;;;8.20;99.90;;;;;;5030705;28;20128;-81
2022/04/05 08:08:08;;;;;;;5.72;1.40;;;8.30;99.90;;;;;;5030627;28;20049;-81
2022/04/05 08:10:34;;;;;;;4.63;1.50;;;8.30;99.90;;;;;;5030240;28;20041;-81
2022/04/05 08:13:00;;;;;;;6.43;1.33;;;8.40;99.90;;;;;;5030364;28;20064;-82
2022/04/05 08:15:26;;;;;;;4.55;1.27;;;8.40;99.90;;;;;;5013960;28;20041;-81
2022/04/05 08:17:52;;;;;;;6.43;1.60;;;8.40;99.90;;;;;;5030487;28;20045;-81
2022/04/05 08:20:19;;;;;;;6.95;1.67;;;8.40;99.90;;;;;;5030213;28;20037;-81
2022/04/05 08:22:46;;;;;;;5.53;1.25;;;8.40;99.90;;;;;;5030289;28;20041;-81
2022/04/05 08:25:14;;;;;;;6.85;1.55;;;8.40;99.90;;;;;;5014293;28;20108;-81
2022/04/05 08:27:44;;;;;;;3.80;1.10;;;8.40;99.90;;;;;;5030479;28;20045;-81
2022/04/05 08:30:15;;;;;;;5.95;1.50;;;8.40;99.90;;;;;;5029988;28;20042;-81
2022/04/05 08:32:42;;;;;;;5.10;1.40;;;8.50;99.90;;;;;;5030407;28;20534;-82
2022/04/05 08:35:10;;;;;;;4.38;1.42;;;8.40;99.90;;;;;;5030408;28;20034;-81
2022/04/05 08:37:35;;;;;;;4.65;1.30;;;8.50;99.90;;;;;;5030332;28;20034;-81
2022/04/05 08:40:06;;;;;;;6.35;1.67;;;8.50;99.90;;;;;;5030329;28;20038;-81
2022/04/05 08:42:33;;;;;;;3.00;1.10;;;8.50;99.90;;;;;;5013624;28;20037;-81
2022/04/05 08:45:00;;;;;;;5.47;1.58;;;8.60;99.90;;;;;;5030438;28;20479;-81
2022/04/05 08:47:28;;;;;;;5.75;1.50;;;8.60;99.90;;;;;;5014085;28;20143;-81
2022/04/05 08:49:54;;;;;;;6.93;2.05;;;8.60;99.90;;;;;;5029866;28;20045;-81
2022/04/05 08:52:20;;;;;;;6.10;1.60;;;8.60;99.90;;;;;;5030257;28;20402;-81
2022/04/05 08:54:46;;;;;;;5.38;1.40;;;8.60;99.90;;;;;;5030122;28;20495;-81
2022/04/05 08:57:11;;;;;;;5.13;1.58;;;8.60;99.90;;;;;;5029919;28;20038;-81
2022/04/05 08:59:37;;;;;;;2.08;1.00;;;8.60;99.90;;;;;;5029844;28;20388;-81
2022/04/05 09:02:02;;;;;;;3.60;1.30;;;8.60;99.90;;;;;;5030020;28;20041;-81
2022/04/05 09:04:32;;;;;;;3.40;1.30;;;8.60;99.90;;;;;;5031487;28;20041;-82
2022/04/05 09:07:18;;;;;;;4.68;1.40;;;8.60;99.90;;;;;;5033951;28;20172;-81
2022/04/05 09:09:43;;;;;;;5.30;1.30;;;8.60;99.90;;;;;;5033488;28;20073;-81
2022/04/05 09:12:16;;;;;;;3.58;1.20;;;8.70;99.90;;;;;;5033887;28;20511;-81
2022/04/05 09:14:42;;;;;;;5.13;1.58;;;8.70;99.90;;;;;;5017214;28;20044;-81
2022/04/05 09:17:09;;;;;;;2.55;1.08;;;8.70;99.90;;;;;;5033771;28;20029;-81
2022/04/05 09:19:37;;;;;;;2.90;1.20;;;8.80;99.90;;;;;;5033459;28;20160;-81
2022/04/05 09:22:03;;;;;;;4.75;1.40;;;8.80;99.90;;;;;;5033543;28;20037;-82
2022/04/05 09:24:33;;;;;;;3.85;1.40;;;8.80;99.90;;;;;;5033429;28;20410;-82
2022/04/05 09:26:59;;;;;;;2.78;1.17;;;8.80;99.90;;;;;;5033412;28;20037;-82
2022/04/05 09:29:39;;;;;;;2.47;1.00;;;8.80;99.90;;;;;;5016394;28;20033;-82
2022/04/05 09:32:06;;;;;;;2.35;0.80;;;8.90;99.90;;;;;;5031962;28;20041;-82
2022/04/05 09:34:31;;;;;;;1.48;0.73;;;8.90;99.90;;;;;;5033211;28;20132;-81
2022/04/05 09:37:06;;;;;;;2.30;1.00;;;8.90;99.90;;;;;;5033293;28;20080;-81
2022/04/05 09:39:31;;;;;;;2.75;1.02;;;8.90;99.90;;;;;;5033067;28;20049;-81
2022/04/05 09:42:03;;;;;;;2.47;1.17;;;9.00;99.90;;;;;;5033232;28;20041;-81
2022/04/05 09:44:32;;;;;;;2.17;1.00;;;9.00;99.90;;;;;;5033088;28;20128;-81
2022/04/05 09:47:22;;;;;;;3.13;1.30;;;9.00;99.90;;;;;;5033365;28;20080;-81
2022/04/05 09:49:49;;;;;;;3.50;1.50;;;9.10;99.90;;;;;;5032975;28;20048;-81
2022/04/05 09:52:35;;;;;;;3.20;1.30;;;9.10;99.90;;;;;;5032959;28;20041;-81
2022/04/05 09:55:12;;;;;;;4.55;1.40;;;9.00;99.90;;;;;;5016596;28;20495;-81
2022/04/05 09:57:38;;;;;;;4.90;1.73;;;9.10;99.90;;;;;;5033196;28;20095;-81
2022/04/05 10:00:11;;;;;;;3.30;1.50;;;9.10;99.90;;;;;;5032706;28;20045;-81
2022/04/05 10:02:57;;;;;;;3.95;1.60;;;9.10;99.90;;;;;;5033008;28;20034;-81
2022/04/05 10:05:22;;;;;;;3.50;1.55;;;9.20;99.90;;;;;;5016419;28;20076;-82
2022/04/05 10:07:48;;;;;;;5.40;1.75;;;9.20;99.90;;;;;;5032679;28;20072;-81
2022/04/05 10:10:14;;;;;;;4.78;2.08;;;9.20;99.90;;;;;;5032311;28;20073;-81
2022/04/05 10:12:40;;;;;;;5.50;2.03;;;9.20;99.90;;;;;;5032789;28;20037;-81
2022/04/05 10:15:06;;;;;;;6.72;2.30;;;9.20;99.90;;;;;;5015887;28;20063;-81
2022/04/05 10:17:34;;;;;;;6.60;2.70;;;9.20;99.90;;;;;;5016552;28;20041;-81
2022/04/05 10:20:01;;;;;;;7.57;3.38;;;9.20;99.90;;;;;;5015989;28;20057;-81
2022/04/05 10:22:27;;;;;;;8.68;3.75;;;9.20;99.90;;;;;;5032296;28;20109;-81
2022/04/05 10:24:54;;;;;;;8.20;3.72;;;9.30;99.90;;;;;;5032080;28;20049;-81
2022/04/05 10:27:25;;;;;;;8.55;4.47;;;9.30;99.90;;;;;;5014459;28;20517;-81
2022/04/05 10:30:02;;;;;;;9.80;4.85;;;9.30;99.90;;;;;;5031932;28;20539;-82
2022/04/05 10:32:35;;;;;;;9.98;5.00;;;9.40;99.90;;;;;;5031952;28;20052;-81
2022/04/05 10:35:08;;;;;;;8.48;4.47;;;9.40;99.90;;;;;;5032052;28;20486;-81
2022/04/05 10:37:40;;;;;;;8.57;4.50;;;9.50;99.90;;;;;;5032360;28;20068;-81
2022/04/05 10:40:09;;;;;;;9.90;4.97;;;9.50;99.90;;;;;;5031693;28;20487;-81
2022/04/05 10:42:41;;;;;;;9.88;5.82;;;9.50;99.90;;;;;;5031635;28;20048;-82
2022/04/05 10:45:21;;;;;;;8.85;5.32;;;9.50;99.90;;;;;;5031912;28;20124;-81
2022/04/05 10:48:18;;;;;;;9.90;6.03;;;9.50;99.90;;;;;;5032102;28;20074;-81
2022/04/05 10:51:00;;;;;;;9.75;6.03;;;9.60;99.90;;;;;;5031424;28;20045;-81
2022/04/05 10:53:38;;;;;;;10.60;6.33;;;9.60;99.90;;;;;;5031327;28;20128;-81
2022/04/05 10:56:03;;;;;;;11.00;5.70;;;9.60;99.90;;;;;;5031598;28;20041;-82
2022/04/05 10:58:34;;;;;;;11.05;6.22;;;9.70;99.90;;;;;;5031516;28;20617;-82
2022/04/05 11:01:13;;;;;;;11.00;6.40;;;9.80;99.90;;;;;;5031465;28;20560;-81
2022/04/05 11:03:39;;;;;;;10.32;6.38;;;9.90;99.90;;;;;;5030321;28;20033;-82
2022/04/05 11:06:05;;;;;;;10.52;6.55;;;9.90;99.90;;;;;;5031388;28;20048;-82
2022/04/05 11:08:32;;;;;;;11.40;7.43;;;10.00;99.90;;;;;;5031213;28;20503;-82
2022/04/05 11:11:04;;;;;;;10.10;6.32;;;10.10;99.90;;;;;;5031586;28;20049;-81
2022/04/05 11:13:40;;;;;;;10.48;6.05;;;10.20;99.90;;;;;;5031529;28;20041;-82
2022/04/05 11:16:10;;;;;;;10.23;6.38;;;10.30;99.90;;;;;;5031520;28;20430;-82
2022/04/05 11:18:37;;;;;;;9.68;5.68;;;10.40;99.90;;;;;;5031742;28;20457;-82
2022/04/05 11:21:06;;;;;;;9.80;5.93;;;10.50;99.90;;;;;;5029162;28;20052;-80
2022/04/05 11:23:52;;;;;;;9.23;5.53;;;10.60;99.90;;;;;;5036157;28;20045;-80
2022/04/05 11:26:26;;;;;;;8.13;4.47;;;10.60;99.90;;;;;;5032364;28;20053;-81
2022/04/05 11:28:53;;;;;;;9.05;4.70;;;10.70;99.90;;;;;;5008407;28;20151;-81
2022/04/05 11:31:29;;;;;;;7.78;3.75;;;10.70;99.90;;;;;;5025527;28;20087;-80
2022/04/05 11:33:54;;;;;;;9.18;4.82;;;10.70;99.90;;;;;;5031294;28;20128;-81
2022/04/05 11:36:23;;;;;;;8.65;4.72;;;10.70;99.90;;;;;;5031701;28;20072;-81
2022/04/05 11:38:56;;;;;;;8.48;4.28;;;10.80;99.90;;;;;;5031495;28;20048;-79
2022/04/05 11:41:27;;;;;;;8.55;4.03;;;10.80;99.90;;;;;;5031124;28;20033;-81
2022/04/05 11:43:58;;;;;;;9.18;4.70;;;10.90;99.90;;;;;;5031032;28;20041;-81
2022/04/05 11:46:28;;;;;;;8.38;3.95;;;10.90;99.90;;;;;;5031153;28;20095;-80
2022/04/05 11:48:59;;;;;;;9.93;4.40;;;11.10;99.90;;;;;;5014411;28;20546;-81
2022/04/05 11:51:27;;;;;;;7.85;4.28;;;11.20;99.90;;;;;;5030305;28;20041;-81
2022/04/05 11:54:06;;;;;;;8.38;4.28;;;11.20;99.90;;;;;;5030783;28;20052;-81
2022/04/05 11:56:34;;;;;;;7.82;4.40;;;11.20;99.90;;;;;;5030721;28;20052;-82
2022/04/05 11:59:00;;;;;;;7.28;3.85;;;11.20;99.90;;;;;;5037460;28;20040;-81
2022/04/05 12:01:31;;;;;;;7.80;3.83;;;11.20;99.90;;;;;;5034514;28;20148;-81
2022/04/05 12:04:04;;;;;;;9.93;4.38;;;11.20;99.90;;;;;;5030576;28;20053;-81
2022/04/05 12:06:32;;;;;;;8.02;4.20;;;11.20;99.90;;;;;;5013070;28;20494;-81
2022/04/05 12:09:03;;;;;;;8.93;4.70;;;11.10;99.90;;;;;;5030308;28;20556;-81
2022/04/05 12:11:31;;;;;;;9.55;4.07;;;11.10;99.90;;;;;;5030079;28;20045;-81
2022/04/05 12:13:58;;;;;;;9.73;4.68;;;11.10;99.90;;;;;;5029277;28;20473;-81
2022/04/05 12:16:28;;;;;;;9.63;4.97;;;11.10;99.90;;;;;;5030246;28;20038;-81
2022/04/05 12:18:56;;;;;;;9.63;4.78;;;11.10;99.90;;;;;;5030230;28;20037;-81
2022/04/05 12:21:24;;;;;;;9.32;5.00;;;11.10;99.90;;;;;;5029589;28;20083;-81
2022/04/05 12:23:51;;;;;;;8.32;3.95;;;11.10;99.90;;;;;;5013686;28;20049;-82
2022/04/05 12:26:25;;;;;;;8.68;3.92;;;11.10;99.90;;;;;;5029026;28;20033;-81
2022/04/05 12:28:53;;;;;;;10.15;4.40;;;11.10;99.90;;;;;;5013395;28;20034;-82
2022/04/05 12:31:26;;;;;;;9.23;4.07;;;11.20;99.90;;;;;;5012752;28;20055;-81
2022/04/05 12:34:09;;;;;;;9.13;4.47;;;11.30;99.90;;;;;;5013060;28;20056;-82
2022/04/05 12:36:47;;;;;;;10.23;4.03;;;11.40;99.90;;;;;;5034827;28;20038;-81
2022/04/05 12:39:20;;;;;;;9.60;5.40;;;11.40;99.90;;;;;;5031881;28;20048;-82
2022/04/05 12:41:51;;;;;;;10.82;4.53;;;11.60;99.90;;;;;;5033845;28;20061;-81
2022/04/05 12:44:20;;;;;;;12.90;4.30;;;11.80;99.90;;;;;;5033538;28;20068;-81
2022/04/05 12:46:50;;;;;;;8.52;3.55;;;12.00;99.90;;;;;;5033576;28;20045;-82
2022/04/05 12:49:20;;;;;;;9.93;3.78;;;12.00;99.90;;;;;;5032759;28;20046;-82
2022/04/05 12:51:46;;;;;;;9.05;3.35;;;11.90;99.90;;;;;;5016371;28;20380;-82
2022/04/05 12:54:31;;;;;;;8.25;3.50;;;11.90;99.90;;;;;;5033829;28;20041;-82